Time;durP1;ratioP1;P1;durP2;ratioP2;P2;SDS_P1;SDS_P2;PMS_P1;PMS_P2;Temp;Humidity;BMP_temperature;BMP_pressure;BME280_temperature;BME280_humidity;BME280_pressure;Samples;Min_cycle;Max_cycle;Signal;HPM_P1;HPM_P2
2022/05/10 00:02:01;;;;;;;23.40;14.82;;;11.70;99.90;;;;;;5069727;28;20583;-72
2022/05/10 00:04:27;;;;;;;26.05;15.25;;;11.60;99.90;;;;;;5061070;28;20078;-71
2022/05/10 00:06:54;;;;;;;30.00;15.55;;;11.60;99.90;;;;;;5068704;28;20033;-73
2022/05/10 00:09:27;;;;;;;26.02;15.70;;;11.50;99.90;;;;;;5070316;28;20668;-71
2022/05/10 00:11:53;;;;;;;24.95;16.23;;;11.50;99.90;;;;;;5067220;28;20040;-72
2022/05/10 00:14:19;;;;;;;28.60;15.88;;;11.50;99.90;;;;;;5070452;28;20029;-71
2022/05/10 00:16:45;;;;;;;27.85;16.38;;;11.50;99.90;;;;;;5069759;28;20028;-71
2022/05/10 00:19:14;;;;;;;26.05;16.58;;;11.40;99.90;;;;;;5070549;28;20115;-67
2022/05/10 00:21:40;;;;;;;27.77;16.17;;;11.30;99.90;;;;;;5054015;28;20158;-72
2022/05/10 00:24:06;;;;;;;29.75;15.75;;;11.20;99.90;;;;;;5052930;28;20127;-70
2022/05/10 00:26:31;;;;;;;28.33;15.80;;;11.10;99.90;;;;;;5068916;28;20052;-70
2022/05/10 00:28:57;;;;;;;24.08;15.80;;;11.10;99.90;;;;;;5070982;28;20060;-70
2022/05/10 00:31:23;;;;;;;25.25;15.32;;;11.10;99.90;;;;;;5070010;28;20513;-72
2022/05/10 00:33:49;;;;;;;26.55;15.05;;;11.00;99.90;;;;;;5068690;28;20032;-70
2022/05/10 00:36:18;;;;;;;24.90;14.35;;;11.00;99.90;;;;;;5068468;28;20575;-68
2022/05/10 00:38:43;;;;;;;26.67;15.57;;;10.90;99.90;;;;;;5067902;28;20098;-71
2022/05/10 00:41:17;;;;;;;25.00;15.40;;;11.00;99.90;;;;;;5070432;28;20490;-72
2022/05/10 00:43:49;;;;;;;27.10;15.15;;;11.00;99.90;;;;;;5068201;28;20028;-71
2022/05/10 00:46:26;;;;;;;25.77;14.45;;;11.00;99.90;;;;;;5049713;28;20028;-67
2022/05/10 00:49:10;;;;;;;25.58;14.30;;;10.90;99.90;;;;;;5068935;28;20425;-71
2022/05/10 00:51:48;;;;;;;23.30;15.10;;;10.90;99.90;;;;;;5066611;28;20093;-70
2022/05/10 00:54:19;;;;;;;24.10;14.63;;;10.90;99.90;;;;;;5069364;28;20094;-68
2022/05/10 00:56:59;;;;;;;28.20;16.05;;;10.90;99.90;;;;;;5069464;28;20470;-71
2022/05/10 00:59:33;;;;;;;25.80;15.43;;;10.80;99.90;;;;;;5068336;28;20547;-71
2022/05/10 01:02:15;;;;;;;25.38;15.40;;;10.60;99.90;;;;;;5068427;28;20040;-70
2022/05/10 01:04:49;;;;;;;27.00;14.88;;;10.60;99.90;;;;;;5068952;28;20039;-69
2022/05/10 01:07:22;;;;;;;26.20;15.65;;;10.50;99.90;;;;;;5065886;28;20460;-66
2022/05/10 01:10:01;;;;;;;26.50;15.70;;;10.40;99.90;;;;;;5067047;28;20036;-70
2022/05/10 01:12:50;;;;;;;26.30;15.60;;;10.40;99.90;;;;;;5060835;28;20071;-71
2022/05/10 01:15:20;;;;;;;26.80;14.75;;;10.50;99.90;;;;;;5067417;28;20033;-66
2022/05/10 01:17:47;;;;;;;28.53;15.27;;;10.40;99.90;;;;;;5066396;28;20036;-71
2022/05/10 01:20:21;;;;;;;23.45;14.63;;;10.50;99.90;;;;;;5067531;28;20060;-71
2022/05/10 01:23:27;;;;;;;23.88;14.52;;;10.50;99.90;;;;;;5063686;28;20024;-70
2022/05/10 01:26:20;;;;;;;24.85;14.10;;;10.40;99.90;;;;;;5068262;28;20024;-70
2022/05/10 01:28:52;;;;;;;25.15;14.50;;;10.40;99.90;;;;;;5069898;28;20029;-71
2022/05/10 01:31:27;;;;;;;22.92;13.88;;;10.40;99.90;;;;;;5067129;28;20124;-67
2022/05/10 01:33:58;;;;;;;26.55;15.38;;;10.30;99.90;;;;;;5068567;28;20507;-71
2022/05/10 01:36:40;;;;;;;26.35;14.70;;;10.40;99.90;;;;;;5066257;28;20534;-70
2022/05/10 01:39:18;;;;;;;26.02;14.73;;;10.30;99.90;;;;;;5066258;28;20060;-70
2022/05/10 01:41:47;;;;;;;28.10;16.30;;;10.10;99.90;;;;;;5068033;28;20032;-70
2022/05/10 01:44:43;;;;;;;24.23;14.40;;;10.10;99.90;;;;;;5049625;28;20060;-69
2022/05/10 01:47:28;;;;;;;26.70;15.07;;;10.00;99.90;;;;;;5068032;28;20028;-69
2022/05/10 01:50:15;;;;;;;27.20;15.55;;;10.00;99.90;;;;;;5065540;28;20043;-71
2022/05/10 01:52:44;;;;;;;24.10;14.95;;;10.00;99.90;;;;;;5067159;28;20044;-71
2022/05/10 01:55:18;;;;;;;26.42;15.48;;;10.00;99.90;;;;;;5066760;28;20111;-69
2022/05/10 01:57:44;;;;;;;26.05;15.73;;;10.00;99.90;;;;;;5067829;28;20089;-71
2022/05/10 02:00:14;;;;;;;27.60;16.33;;;10.00;99.90;;;;;;5062410;28;20028;-72
2022/05/10 02:03:03;;;;;;;27.05;15.77;;;9.90;99.90;;;;;;5064556;28;20728;-71
2022/05/10 02:05:41;;;;;;;29.90;15.23;;;9.80;99.90;;;;;;5051705;28;20075;-71
2022/05/10 02:08:21;;;;;;;22.98;14.35;;;9.80;99.90;;;;;;5066110;28;20026;-70
2022/05/10 02:10:51;;;;;;;29.05;14.93;;;9.80;99.90;;;;;;5066554;28;20851;-71
2022/05/10 02:13:26;;;;;;;27.65;14.30;;;9.80;99.90;;;;;;5066352;28;20054;-67
2022/05/10 02:16:09;;;;;;;24.25;15.10;;;9.80;99.90;;;;;;5068157;28;20032;-70
2022/05/10 02:19:09;;;;;;;22.63;14.25;;;9.80;99.90;;;;;;5068891;28;20020;-69
2022/05/10 02:21:48;;;;;;;26.17;14.90;;;9.80;99.90;;;;;;5053451;28;20041;-70
2022/05/10 02:24:23;;;;;;;28.30;15.50;;;9.80;99.90;;;;;;5070953;28;20484;-71
2022/05/10 02:26:51;;;;;;;24.00;14.02;;;9.80;99.90;;;;;;5065363;28;20073;-68
2022/05/10 02:29:27;;;;;;;30.67;15.20;;;9.70;99.90;;;;;;5065314;28;20035;-70
2022/05/10 02:34:48;;;;;;;24.08;14.80;;;9.70;99.90;;;;;;5071260;28;20075;-69
2022/05/10 02:37:14;;;;;;;24.38;13.55;;;9.60;99.90;;;;;;5072587;28;20064;-69
2022/05/10 02:39:40;;;;;;;23.88;13.63;;;9.60;99.90;;;;;;5066587;28;20054;-68
2022/05/10 02:42:09;;;;;;;26.00;13.63;;;9.50;99.90;;;;;;5072289;28;20611;-71
2022/05/10 02:44:36;;;;;;;23.17;14.07;;;9.50;99.90;;;;;;5065089;28;20028;-71
2022/05/10 02:47:02;;;;;;;27.73;15.07;;;9.50;99.90;;;;;;5075763;28;20048;-69
2022/05/10 02:49:28;;;;;;;24.48;14.90;;;9.50;99.90;;;;;;5067990;28;20493;-68
2022/05/10 02:51:55;;;;;;;24.35;14.77;;;9.50;99.90;;;;;;5068374;28;20048;-69
2022/05/10 02:54:21;;;;;;;25.67;14.98;;;9.50;99.90;;;;;;5068130;28;20036;-67
2022/05/10 02:56:47;;;;;;;28.15;14.82;;;9.60;99.90;;;;;;5070974;28;20089;-70
2022/05/10 02:59:22;;;;;;;24.67;15.00;;;9.50;99.90;;;;;;5070681;28;20496;-69
2022/05/10 03:01:53;;;;;;;28.02;13.77;;;9.50;99.90;;;;;;5064763;28;20032;-70
2022/05/10 03:04:19;;;;;;;24.20;14.25;;;9.40;99.90;;;;;;5070688;28;20154;-67
2022/05/10 03:06:46;;;;;;;25.00;14.07;;;9.30;99.90;;;;;;5070380;28;20028;-70
2022/05/10 03:09:13;;;;;;;24.55;14.63;;;9.30;99.90;;;;;;5069046;28;20033;-68
2022/05/10 03:11:39;;;;;;;27.27;15.93;;;9.40;99.90;;;;;;5070476;28;20439;-69
2022/05/10 03:14:07;;;;;;;30.73;16.30;;;9.40;99.90;;;;;;5070532;28;20036;-70
2022/05/10 03:16:34;;;;;;;24.98;14.82;;;9.40;99.90;;;;;;5071205;28;20373;-70
2022/05/10 03:19:00;;;;;;;24.85;15.00;;;9.30;99.90;;;;;;5072155;28;20032;-70
2022/05/10 03:21:26;;;;;;;26.75;15.90;;;9.20;99.90;;;;;;5071357;28;20028;-70
2022/05/10 03:23:52;;;;;;;34.45;16.55;;;9.10;99.90;;;;;;5071978;28;20024;-70
2022/05/10 03:26:25;;;;;;;26.77;15.25;;;9.20;99.90;;;;;;5072079;28;20032;-69
2022/05/10 03:28:52;;;;;;;26.77;15.65;;;9.20;99.90;;;;;;5070170;28;20043;-70
2022/05/10 03:31:19;;;;;;;27.40;15.65;;;9.20;99.90;;;;;;5071952;28;20036;-70
2022/05/10 03:33:45;;;;;;;27.95;14.85;;;9.10;99.90;;;;;;5070549;28;20020;-70
2022/05/10 03:36:11;;;;;;;29.17;16.25;;;9.10;99.90;;;;;;5071358;28;20054;-68
2022/05/10 03:38:37;;;;;;;28.27;16.35;;;9.10;99.90;;;;;;5070994;28;20132;-70
2022/05/10 03:41:03;;;;;;;26.00;14.70;;;9.20;99.90;;;;;;5071841;28;20456;-70
2022/05/10 03:43:29;;;;;;;25.60;14.43;;;9.10;99.90;;;;;;5070932;28;20028;-69
2022/05/10 03:45:55;;;;;;;29.58;14.75;;;9.10;99.90;;;;;;5072038;28;20048;-70
2022/05/10 03:48:21;;;;;;;26.55;14.38;;;9.00;99.90;;;;;;5070774;28;20037;-70
2022/05/10 03:50:47;;;;;;;25.10;14.43;;;9.00;99.90;;;;;;5070948;28;20468;-71
2022/05/10 03:53:13;;;;;;;25.85;15.20;;;9.00;99.90;;;;;;5071521;28;20036;-69
2022/05/10 03:55:38;;;;;;;26.40;13.98;;;8.90;99.90;;;;;;5069969;28;20024;-70
2022/05/10 03:58:05;;;;;;;24.73;15.25;;;8.90;99.90;;;;;;5071242;28;20043;-70
2022/05/10 04:00:31;;;;;;;23.35;14.23;;;9.00;99.90;;;;;;5070544;28;20036;-70
2022/05/10 04:02:57;;;;;;;26.40;14.82;;;9.00;99.90;;;;;;5071401;28;20050;-69
2022/05/10 04:05:27;;;;;;;24.15;13.85;;;9.00;99.90;;;;;;5071028;28;20025;-67
2022/05/10 04:07:53;;;;;;;27.45;14.88;;;9.10;99.90;;;;;;5070551;28;20028;-71
2022/05/10 04:10:20;;;;;;;27.38;15.57;;;9.00;99.90;;;;;;5053009;28;20462;-69
2022/05/10 04:12:46;;;;;;;25.95;15.27;;;9.00;99.90;;;;;;5070339;28;20495;-68
2022/05/10 04:15:15;;;;;;;25.65;14.68;;;9.00;99.90;;;;;;5067648;28;20050;-69
2022/05/10 04:17:45;;;;;;;25.27;14.80;;;8.90;99.90;;;;;;5069869;28;20041;-70
2022/05/10 04:20:13;;;;;;;27.42;14.65;;;8.80;99.90;;;;;;5070993;28;20043;-69
2022/05/10 04:22:39;;;;;;;28.88;14.95;;;8.80;99.90;;;;;;5070186;28;20032;-69
2022/05/10 04:25:05;;;;;;;25.63;15.68;;;9.00;99.90;;;;;;5070802;28;20112;-70
2022/05/10 04:27:31;;;;;;;26.63;15.15;;;9.20;99.90;;;;;;5068475;28;20036;-70
2022/05/10 04:29:56;;;;;;;28.90;15.75;;;9.30;99.90;;;;;;5070811;28;20384;-69
2022/05/10 04:32:22;;;;;;;26.20;15.30;;;9.50;99.90;;;;;;5070821;28;20029;-70
2022/05/10 04:34:48;;;;;;;32.95;16.17;;;9.50;99.90;;;;;;5069892;28;20020;-70
2022/05/10 04:37:13;;;;;;;27.65;15.63;;;9.50;99.90;;;;;;5070514;28;20029;-68
2022/05/10 04:42:37;;;;;;;27.50;15.35;;;9.80;99.90;;;;;;5034624;28;20369;-68
2022/05/10 04:45:03;;;;;;;24.02;14.98;;;9.80;99.90;;;;;;5069885;28;20042;-69
2022/05/10 04:47:28;;;;;;;24.75;15.25;;;9.90;99.90;;;;;;5069966;28;20031;-65
2022/05/10 04:49:54;;;;;;;25.80;14.85;;;10.00;99.90;;;;;;5070016;28;20028;-69
2022/05/10 04:52:19;;;;;;;22.98;14.40;;;10.00;99.90;;;;;;5069650;28;20102;-70
2022/05/10 04:54:45;;;;;;;24.20;14.38;;;10.10;99.90;;;;;;5069240;28;20036;-70
2022/05/10 04:57:11;;;;;;;31.17;15.45;;;10.30;99.90;;;;;;5070255;28;20051;-69
2022/05/10 04:59:36;;;;;;;24.83;14.80;;;10.50;99.90;;;;;;5069496;28;20025;-70
2022/05/10 05:02:02;;;;;;;24.33;14.55;;;10.60;99.90;;;;;;5070077;28;20032;-69
2022/05/10 05:04:28;;;;;;;29.17;15.15;;;10.70;99.90;;;;;;5069762;28;20070;-66
2022/05/10 05:06:54;;;;;;;21.98;13.82;;;10.90;99.90;;;;;;5069700;28;20465;-70
2022/05/10 05:09:19;;;;;;;22.50;13.80;;;11.00;99.90;;;;;;5067894;28;20025;-70
2022/05/10 05:11:45;;;;;;;28.85;14.85;;;11.10;99.90;;;;;;5069493;28;20054;-69
2022/05/10 05:14:11;;;;;;;25.35;15.75;;;11.10;99.90;;;;;;5051353;28;20048;-70
2022/05/10 05:16:37;;;;;;;30.60;18.38;;;11.00;99.90;;;;;;5069037;28;20060;-69
2022/05/10 05:19:03;;;;;;;24.92;15.88;;;10.90;99.90;;;;;;5069953;28;20025;-69
2022/05/10 05:21:29;;;;;;;27.98;15.85;;;11.00;99.90;;;;;;5068691;28;20112;-69
2022/05/10 05:23:55;;;;;;;25.23;15.20;;;11.10;99.90;;;;;;5067762;28;20127;-71
2022/05/10 05:26:22;;;;;;;27.67;15.45;;;11.10;99.90;;;;;;5069709;28;20029;-70
2022/05/10 05:28:47;;;;;;;24.15;15.38;;;11.20;99.90;;;;;;5068418;28;20558;-69
2022/05/10 05:31:14;;;;;;;26.52;15.18;;;11.20;99.90;;;;;;5069665;28;20060;-70
2022/05/10 05:33:39;;;;;;;28.60;16.20;;;11.20;99.90;;;;;;5067977;28;20032;-70
2022/05/10 05:36:05;;;;;;;28.05;16.02;;;11.40;99.90;;;;;;5069585;28;20388;-71
2022/05/10 05:38:31;;;;;;;27.45;16.15;;;11.60;99.90;;;;;;5068620;28;20065;-67
2022/05/10 05:40:57;;;;;;;25.90;15.95;;;11.70;99.90;;;;;;5069403;28;20040;-71
2022/05/10 05:43:23;;;;;;;34.83;16.30;;;11.80;99.90;;;;;;5068893;28;20036;-69
2022/05/10 05:45:50;;;;;;;25.75;16.05;;;11.90;99.90;;;;;;5068649;28;20028;-70
2022/05/10 05:48:16;;;;;;;25.77;15.52;;;12.10;99.90;;;;;;5069557;28;20040;-71
2022/05/10 05:50:42;;;;;;;26.42;15.38;;;12.20;99.90;;;;;;5068756;28;20372;-70
2022/05/10 05:53:08;;;;;;;26.85;16.30;;;12.20;99.90;;;;;;5069104;28;20491;-71
2022/05/10 05:55:34;;;;;;;26.00;16.13;;;12.30;99.90;;;;;;5068530;28;20029;-67
2022/05/10 05:57:59;;;;;;;24.88;15.20;;;12.40;99.90;;;;;;5068615;28;20028;-69
2022/05/10 06:00:27;;;;;;;25.42;15.68;;;12.60;99.90;;;;;;5069374;28;20046;-69
2022/05/10 06:02:53;;;;;;;24.35;15.15;;;12.80;99.90;;;;;;5068609;28;20056;-70
2022/05/10 06:05:21;;;;;;;28.90;16.17;;;13.00;99.90;;;;;;5069284;28;20421;-71
2022/05/10 06:07:47;;;;;;;25.02;15.57;;;13.20;99.90;;;;;;5068565;28;20036;-71
2022/05/10 06:10:13;;;;;;;25.77;15.98;;;13.40;99.90;;;;;;5068968;28;20098;-70
2022/05/10 06:12:40;;;;;;;28.05;16.38;;;13.60;99.90;;;;;;5067695;28;20028;-72
2022/05/10 06:15:10;;;;;;;31.20;16.67;;;13.70;99.90;;;;;;5069340;28;20020;-72
2022/05/10 06:17:38;;;;;;;26.23;16.58;;;13.70;99.90;;;;;;5068532;28;20029;-71
2022/05/10 06:20:07;;;;;;;25.38;15.80;;;13.80;99.90;;;;;;5066176;28;20039;-71
2022/05/10 06:22:33;;;;;;;27.40;17.23;;;14.00;99.90;;;;;;5048723;28;20175;-68
2022/05/10 06:24:59;;;;;;;26.02;16.40;;;14.20;99.90;;;;;;5048693;28;20025;-72
2022/05/10 06:27:26;;;;;;;31.25;17.70;;;14.30;99.90;;;;;;5068223;28;20480;-71
2022/05/10 06:29:51;;;;;;;26.88;16.48;;;14.40;99.90;;;;;;5068243;28;20037;-70
2022/05/10 06:32:22;;;;;;;29.58;16.80;;;14.70;99.90;;;;;;5068845;28;20062;-72
2022/05/10 06:34:50;;;;;;;26.55;16.75;;;14.80;99.90;;;;;;5068011;28;20108;-71
2022/05/10 06:40:11;;;;;;;26.55;15.98;;;15.30;99.90;;;;;;5068269;28;20130;-71
2022/05/10 06:42:37;;;;;;;27.02;15.90;;;15.50;99.90;;;;;;5068150;28;20040;-69
2022/05/10 06:45:08;;;;;;;24.55;15.98;;;15.60;99.90;;;;;;5067461;28;20028;-73
2022/05/10 06:47:38;;;;;;;27.67;16.85;;;15.80;99.90;;;;;;5067849;28;20483;-69
2022/05/10 06:50:06;;;;;;;26.10;16.33;;;16.00;99.90;;;;;;5068964;28;20071;-73
2022/05/10 06:52:31;;;;;;;26.02;15.50;;;16.20;99.90;;;;;;5068820;28;20037;-71
2022/05/10 06:54:57;;;;;;;26.83;16.05;;;16.40;99.90;;;;;;5067881;28;20428;-71
2022/05/10 06:57:23;;;;;;;28.02;15.57;;;16.50;99.90;;;;;;5068827;28;20039;-71
2022/05/10 06:59:49;;;;;;;22.25;15.13;;;16.70;99.90;;;;;;5068065;28;20020;-73
2022/05/10 07:02:15;;;;;;;23.38;14.82;;;16.70;99.90;;;;;;5068125;28;20020;-73
2022/05/10 07:04:40;;;;;;;21.55;14.88;;;16.80;99.90;;;;;;5070682;28;20461;-73
2022/05/10 07:07:06;;;;;;;21.65;14.90;;;17.00;99.90;;;;;;5072245;28;20032;-73
2022/05/10 07:09:32;;;;;;;25.90;15.48;;;17.20;99.90;;;;;;5072372;28;20035;-72
2022/05/10 07:11:57;;;;;;;24.92;15.38;;;17.40;99.90;;;;;;5071623;28;20059;-71
2022/05/10 07:14:23;;;;;;;21.23;14.73;;;17.60;99.90;;;;;;5072255;28;20121;-72
2022/05/10 07:16:49;;;;;;;22.02;14.05;;;17.90;99.90;;;;;;5070836;28;20090;-72
2022/05/10 07:19:15;;;;;;;21.13;13.98;;;18.00;99.90;;;;;;5072218;28;20063;-72
2022/05/10 07:21:40;;;;;;;22.17;13.63;;;18.10;99.90;;;;;;5071458;28;20041;-71
2022/05/10 07:24:06;;;;;;;21.30;13.60;;;18.20;99.90;;;;;;5072166;28;20024;-72
2022/05/10 07:26:32;;;;;;;26.08;14.77;;;18.30;99.90;;;;;;5071922;28;20032;-72
2022/05/10 07:28:57;;;;;;;25.45;14.45;;;18.50;99.90;;;;;;5070729;28;20100;-72
2022/05/10 07:31:23;;;;;;;20.90;13.82;;;18.60;99.90;;;;;;5071130;28;20033;-73
2022/05/10 07:33:49;;;;;;;24.10;13.65;;;18.70;99.90;;;;;;5071140;28;20113;-71
2022/05/10 07:36:23;;;;;;;17.40;12.88;;;18.90;99.90;;;;;;5071988;28;20032;-73
2022/05/10 07:38:50;;;;;;;20.13;12.73;;;19.10;99.90;;;;;;5070646;28;20152;-71
2022/05/10 07:41:18;;;;;;;19.80;13.02;;;19.20;99.90;;;;;;5071145;28;20496;-72
2022/05/10 07:43:44;;;;;;;23.90;12.55;;;19.40;99.90;;;;;;5070973;28;20075;-72
2022/05/10 07:46:10;;;;;;;18.80;12.85;;;19.60;99.90;;;;;;5071829;28;20051;-72
2022/05/10 07:48:36;;;;;;;18.25;12.00;;;19.90;99.90;;;;;;5069898;28;20487;-71
2022/05/10 07:51:03;;;;;;;19.33;12.65;;;20.20;99.90;;;;;;5070372;28;20054;-73
2022/05/10 07:53:31;;;;;;;21.15;12.68;;;20.30;99.90;;;;;;5071654;28;20039;-70
2022/05/10 07:55:58;;;;;;;18.52;12.60;;;20.40;99.90;;;;;;5070858;28;20021;-71
2022/05/10 07:58:24;;;;;;;18.50;12.20;;;20.50;99.90;;;;;;5071565;28;20081;-73
2022/05/10 08:00:50;;;;;;;18.63;12.20;;;20.70;99.90;;;;;;5070432;28;20093;-73
2022/05/10 08:03:19;;;;;;;15.32;10.75;;;20.70;99.90;;;;;;5071500;28;20407;-71
2022/05/10 08:05:46;;;;;;;16.07;11.37;;;20.70;99.90;;;;;;5069173;28;20490;-73
2022/05/10 08:08:13;;;;;;;16.33;11.57;;;20.70;99.90;;;;;;5071361;28;20652;-72
2022/05/10 08:10:42;;;;;;;21.00;12.20;;;20.80;99.90;;;;;;5070164;28;20068;-68
2022/05/10 08:13:12;;;;;;;20.10;12.43;;;20.80;99.90;;;;;;5064398;28;20257;-71
2022/05/10 08:15:38;;;;;;;16.73;11.25;;;20.90;99.90;;;;;;5071077;28;20031;-68
2022/05/10 08:18:05;;;;;;;17.73;11.68;;;21.10;99.90;;;;;;5070885;28;20029;-72
2022/05/10 08:20:31;;;;;;;17.23;11.90;;;21.10;99.90;;;;;;5071117;28;20032;-71
2022/05/10 08:22:57;;;;;;;19.77;11.40;;;21.20;99.90;;;;;;5070105;28;20039;-73
2022/05/10 08:25:23;;;;;;;18.13;11.32;;;21.50;99.90;;;;;;5071075;28;20111;-73
2022/05/10 08:27:48;;;;;;;16.77;10.80;;;21.50;99.90;;;;;;5069398;28;20575;-71
2022/05/10 08:30:15;;;;;;;13.73;9.75;;;21.60;99.90;;;;;;5067630;28;20043;-71
2022/05/10 08:32:41;;;;;;;17.60;11.30;;;21.80;99.90;;;;;;5070460;28;20503;-71
2022/05/10 08:35:08;;;;;;;23.42;11.55;;;22.00;99.90;;;;;;5052664;28;20381;-71
2022/05/10 08:37:36;;;;;;;13.88;10.25;;;22.20;99.90;;;;;;5070930;28;20045;-72
2022/05/10 08:40:08;;;;;;;14.00;9.90;;;22.30;99.90;;;;;;5069956;28;20020;-73
2022/05/10 08:42:44;;;;;;;13.85;9.80;;;22.10;99.90;;;;;;5069711;28;20033;-72
2022/05/10 08:45:10;;;;;;;17.25;10.20;;;22.20;99.90;;;;;;5070440;28;20464;-71
2022/05/10 08:47:37;;;;;;;13.25;9.77;;;22.10;99.90;;;;;;5070531;28;20032;-71
2022/05/10 08:50:09;;;;;;;11.70;9.18;;;22.20;99.90;;;;;;5066842;28;20669;-72
2022/05/10 08:52:40;;;;;;;13.93;10.05;;;22.20;99.90;;;;;;5070384;28;20032;-72
2022/05/10 08:55:10;;;;;;;13.63;9.45;;;22.30;99.90;;;;;;5069864;28;20469;-70
2022/05/10 08:57:50;;;;;;;15.82;9.63;;;22.30;99.90;;;;;;5070459;28;20025;-70
2022/05/10 09:00:34;;;;;;;12.60;8.70;;;22.40;99.90;;;;;;5070385;28;20041;-70
2022/05/10 09:03:24;;;;;;;12.35;9.02;;;22.50;99.90;;;;;;5060643;28;20054;-71
2022/05/10 09:05:51;;;;;;;12.90;9.10;;;22.80;99.90;;;;;;5065350;28;20037;-70
2022/05/10 09:08:35;;;;;;;11.63;8.98;;;23.00;99.90;;;;;;5070316;28;20032;-71
2022/05/10 09:11:04;;;;;;;12.65;8.40;;;23.40;99.90;;;;;;5069340;28;20063;-71
2022/05/10 09:13:31;;;;;;;10.70;8.23;;;23.60;97.40;;;;;;5069957;28;20074;-73
2022/05/10 09:16:00;;;;;;;12.32;8.45;;;23.60;98.90;;;;;;5069018;28;20028;-71
2022/05/10 09:18:28;;;;;;;13.23;8.85;;;23.40;94.30;;;;;;5070109;28;20028;-73
2022/05/10 09:21:12;;;;;;;12.93;7.63;;;23.50;95.10;;;;;;5068234;28;20127;-73
2022/05/10 09:23:59;;;;;;;11.30;7.88;;;23.60;92.80;;;;;;5069905;28;20075;-71
2022/05/10 09:26:33;;;;;;;11.45;9.07;;;23.90;90.90;;;;;;5069224;28;20477;-73
2022/05/10 09:29:36;;;;;;;12.55;9.55;;;24.00;92.50;;;;;;5069079;28;20082;-72
2022/05/10 09:35:12;;;;;;;14.52;9.52;;;23.30;97.00;;;;;;5068333;28;20067;-72
2022/05/10 09:37:53;;;;;;;15.48;9.15;;;23.60;96.00;;;;;;5069194;28;20408;-70
2022/05/10 09:40:48;;;;;;;14.55;9.68;;;23.70;96.20;;;;;;5069694;28;20044;-72
2022/05/10 09:43:25;;;;;;;16.38;10.02;;;23.60;98.50;;;;;;5047706;28;20068;-71
2022/05/10 09:46:17;;;;;;;20.98;10.32;;;24.00;96.10;;;;;;5069065;28;20370;-74
2022/05/10 09:48:44;;;;;;;14.73;10.82;;;24.00;99.90;;;;;;5068752;28;20024;-69
2022/05/10 09:51:23;;;;;;;16.48;10.15;;;23.90;95.50;;;;;;5068800;28;20450;-71
2022/05/10 09:53:50;;;;;;;14.90;10.23;;;23.80;96.90;;;;;;5068684;28;20039;-73
2022/05/10 09:56:25;;;;;;;16.15;9.52;;;23.80;94.90;;;;;;5069546;28;20115;-72
2022/05/10 09:59:20;;;;;;;16.05;10.38;;;23.90;95.00;;;;;;5068558;28;20124;-71
2022/05/10 10:01:48;;;;;;;16.13;9.77;;;24.00;92.20;;;;;;5067535;28;20060;-67
2022/05/10 10:04:34;;;;;;;15.13;10.02;;;24.20;97.40;;;;;;5068589;28;20032;-72
2022/05/10 10:07:24;;;;;;;16.13;10.32;;;24.50;93.30;;;;;;5068502;28;20024;-71
2022/05/10 10:09:53;;;;;;;15.57;9.43;;;24.30;91.80;;;;;;5068676;28;20149;-71
2022/05/10 10:12:31;;;;;;;13.18;9.77;;;24.00;92.90;;;;;;5069242;28;20499;-71
2022/05/10 10:14:57;;;;;;;12.43;8.85;;;24.00;91.50;;;;;;5068458;28;20031;-74
2022/05/10 10:17:28;;;;;;;15.40;9.38;;;24.30;93.80;;;;;;5061068;28;20036;-71
2022/05/10 10:20:03;;;;;;;12.93;9.02;;;24.30;90.90;;;;;;5060755;28;20029;-73
2022/05/10 10:22:46;;;;;;;11.45;8.80;;;24.30;90.90;;;;;;5057421;28;20021;-70
2022/05/10 10:25:25;;;;;;;9.82;8.02;;;24.30;85.20;;;;;;5058407;28;20093;-73
2022/05/10 10:27:59;;;;;;;11.45;8.40;;;24.80;84.10;;;;;;5057692;28;20040;-72
2022/05/10 10:30:55;;;;;;;10.68;8.13;;;25.00;80.20;;;;;;5057133;28;20044;-72
2022/05/10 10:33:46;;;;;;;13.23;7.95;;;24.90;83.10;;;;;;5049122;28;20039;-72
2022/05/10 10:36:21;;;;;;;10.13;6.85;;;24.30;79.40;;;;;;5056452;28;20033;-70
2022/05/10 10:38:52;;;;;;;7.70;6.32;;;24.40;72.30;;;;;;5069299;28;20102;-69
2022/05/10 10:41:40;;;;;;;9.15;6.10;;;24.30;76.40;;;;;;5072735;28;20388;-70
2022/05/10 10:44:25;;;;;;;10.10;7.00;;;24.50;77.90;;;;;;5072088;28;20033;-73
2022/05/10 10:47:06;;;;;;;11.65;6.82;;;24.60;76.20;;;;;;5072106;28;20033;-71
2022/05/10 10:50:01;;;;;;;10.52;6.40;;;24.80;75.40;;;;;;5072811;28;20029;-73
2022/05/10 10:52:29;;;;;;;9.07;6.18;;;24.80;78.30;;;;;;5071894;28;20028;-71
2022/05/10 10:54:54;;;;;;;8.18;6.50;;;24.90;71.20;;;;;;5071931;28;20024;-72
2022/05/10 10:57:41;;;;;;;8.73;6.15;;;24.50;69.00;;;;;;5072341;28;20472;-70
2022/05/10 11:00:30;;;;;;;9.90;7.25;;;24.30;71.00;;;;;;5071885;28;20039;-71
2022/05/10 11:03:06;;;;;;;8.07;6.00;;;24.60;77.70;;;;;;5033140;28;20037;-71
2022/05/10 11:05:43;;;;;;;8.32;5.47;;;24.90;68.00;;;;;;5071849;28;20079;-71
2022/05/10 11:08:46;;;;;;;8.90;5.82;;;25.40;64.40;;;;;;5071852;28;20107;-71
2022/05/10 11:11:20;;;;;;;8.20;5.82;;;25.70;70.90;;;;;;5071231;28;20726;-70
2022/05/10 11:14:03;;;;;;;6.13;4.97;;;25.20;62.60;;;;;;5072402;28;20037;-71
2022/05/10 11:16:35;;;;;;;8.70;5.28;;;25.30;63.30;;;;;;5072382;28;20024;-72
2022/05/10 11:19:32;;;;;;;7.03;5.70;;;25.40;64.60;;;;;;5071510;28;20051;-72
2022/05/10 11:22:22;;;;;;;8.98;6.10;;;25.50;65.80;;;;;;5069960;28;20039;-72
2022/05/10 11:24:58;;;;;;;8.27;5.85;;;25.80;62.50;;;;;;5072618;28;20665;-71
2022/05/10 11:27:42;;;;;;;8.27;5.85;;;26.00;63.10;;;;;;5072144;28;20060;-71
2022/05/10 11:30:23;;;;;;;8.00;5.68;;;26.10;59.40;;;;;;5070442;28;20153;-73
2022/05/10 11:33:17;;;;;;;7.72;5.30;;;26.60;64.40;;;;;;5071858;28;20039;-70
2022/05/10 11:36:16;;;;;;;6.97;5.00;;;25.90;59.30;;;;;;5071746;28;20477;-73
2022/05/10 11:39:14;;;;;;;8.88;4.70;;;25.50;58.00;;;;;;5071941;28;20505;-71
2022/05/10 11:42:00;;;;;;;7.53;5.00;;;25.60;58.70;;;;;;5071410;28;20032;-73
2022/05/10 11:44:45;;;;;;;11.75;5.03;;;25.70;59.90;;;;;;5071268;28;20039;-73
2022/05/10 11:47:38;;;;;;;6.18;4.30;;;25.60;55.20;;;;;;5071082;28;20246;-70
2022/05/10 11:50:28;;;;;;;8.10;4.65;;;25.90;54.40;;;;;;5070361;28;20035;-72
2022/05/10 11:53:03;;;;;;;6.93;5.60;;;26.40;60.70;;;;;;5071145;28;20028;-68
2022/05/10 11:55:36;;;;;;;9.00;5.53;;;26.30;58.50;;;;;;5071586;28;20068;-71
2022/05/10 11:58:07;;;;;;;8.55;5.78;;;26.20;55.90;;;;;;5069111;28;20077;-72
2022/05/10 12:00:33;;;;;;;6.28;5.13;;;25.70;55.30;;;;;;5071431;28;20430;-70
2022/05/10 12:03:00;;;;;;;7.63;4.80;;;25.70;57.00;;;;;;5070589;28;20025;-70
2022/05/10 12:05:29;;;;;;;6.13;4.60;;;25.90;56.90;;;;;;5071175;28;20108;-71
2022/05/10 12:08:01;;;;;;;5.45;4.50;;;25.70;55.30;;;;;;5070712;28;20028;-68
2022/05/10 12:10:29;;;;;;;6.93;4.90;;;25.50;57.30;;;;;;5071233;28;20040;-72
2022/05/10 12:12:59;;;;;;;8.68;4.65;;;25.40;56.20;;;;;;5069801;28;20112;-70
2022/05/10 12:21:29;;;;;;;9.53;4.70;;;25.60;55.10;;;;;;5070389;28;20388;-71
2022/05/10 12:24:28;;;;;;;6.65;4.70;;;25.80;57.10;;;;;;5070607;28;20024;-68
2022/05/10 12:27:10;;;;;;;6.47;4.82;;;25.50;54.00;;;;;;5026331;28;20063;-68
2022/05/10 12:29:58;;;;;;;8.48;5.22;;;25.60;53.80;;;;;;5070256;28;20388;-71
2022/05/10 12:32:45;;;;;;;7.55;4.88;;;25.90;54.30;;;;;;5070707;28;20112;-75
2022/05/10 12:35:30;;;;;;;7.03;4.93;;;26.00;52.90;;;;;;5069943;28;20350;-72
2022/05/10 12:38:00;;;;;;;10.50;5.35;;;25.60;51.20;;;;;;5063971;28;20059;-69
2022/05/10 12:40:34;;;;;;;6.38;4.60;;;25.50;54.30;;;;;;5070616;28;20044;-74
2022/05/10 12:43:20;;;;;;;7.90;4.18;;;25.60;54.70;;;;;;5069716;28;20067;-73
2022/05/10 12:46:22;;;;;;;5.85;4.70;;;25.70;51.30;;;;;;5069962;28;20076;-71
2022/05/10 12:49:07;;;;;;;9.00;5.40;;;25.50;54.70;;;;;;5070600;28;20032;-72
2022/05/10 12:52:39;;;;;;;6.32;4.80;;;25.60;57.10;;;;;;5068462;28;20058;-73
2022/05/10 12:55:16;;;;;;;6.80;4.90;;;25.90;56.70;;;;;;5004853;28;20038;-74
2022/05/10 12:58:14;;;;;;;6.68;4.68;;;26.20;55.90;;;;;;5006641;28;20041;-72
2022/05/10 13:00:44;;;;;;;6.35;5.10;;;26.10;54.50;;;;;;5002828;28;20121;-71
2022/05/10 13:03:20;;;;;;;7.10;5.10;;;25.80;53.70;;;;;;4991145;28;20030;-72
2022/05/10 13:06:13;;;;;;;6.47;4.00;;;25.50;55.10;;;;;;5002731;28;20132;-72
2022/05/10 13:09:02;;;;;;;7.13;4.93;;;25.40;49.40;;;;;;4994878;28;20114;-72
2022/05/10 13:11:37;;;;;;;5.35;4.10;;;25.50;54.80;;;;;;5014470;28;20053;-71
2022/05/10 13:14:04;;;;;;;7.68;3.75;;;25.40;51.40;;;;;;5004585;28;20042;-70
2022/05/10 13:16:30;;;;;;;4.38;3.70;;;25.20;50.20;;;;;;5007685;28;20037;-72
2022/05/10 13:18:57;;;;;;;6.72;4.45;;;25.30;51.10;;;;;;5006532;28;20038;-70